createdAt,value
2022-07-27T00:01:23.312Z,17.26
2022-07-27T00:03:52.716Z,17.22
2022-07-27T00:06:23.538Z,17.17
2022-07-27T00:08:53.205Z,17.16
2022-07-27T00:11:22.456Z,17.27
2022-07-27T00:13:51.747Z,17.26
2022-07-27T00:16:21.234Z,17.21
2022-07-27T00:18:50.621Z,17.08
2022-07-27T00:21:19.914Z,17.02
2022-07-27T00:23:56.561Z,17.04
2022-07-27T00:26:26.059Z,16.97
2022-07-27T00:28:55.332Z,16.87
2022-07-27T00:31:24.752Z,16.85
2022-07-27T00:33:54.063Z,16.85
2022-07-27T00:36:23.351Z,17.01
2022-07-27T00:38:52.693Z,16.87
2022-07-27T00:41:23.622Z,16.75
2022-07-27T00:43:55.853Z,16.67
2022-07-27T00:46:26.309Z,16.74
2022-07-27T00:48:55.728Z,16.69
2022-07-27T00:51:25.845Z,16.73
2022-07-27T00:53:56.482Z,16.80
2022-07-27T00:56:27.426Z,16.84
2022-07-27T00:58:58.307Z,16.95
2022-07-27T01:01:27.615Z,16.86
2022-07-27T01:04:02.956Z,16.89
2022-07-27T01:06:36.680Z,16.71
2022-07-27T01:09:23.281Z,16.77
2022-07-27T01:11:53.923Z,16.80
2022-07-27T01:14:28.671Z,16.75
2022-07-27T01:16:58.106Z,16.56
2022-07-27T01:19:27.441Z,16.46
2022-07-27T01:21:58.173Z,16.45
2022-07-27T01:24:27.400Z,16.45
2022-07-27T01:26:56.644Z,16.45
2022-07-27T01:29:25.820Z,16.49
2022-07-27T01:31:55.178Z,16.40
2022-07-27T01:34:24.381Z,16.34
2022-07-27T01:36:53.804Z,16.29
2022-07-27T01:39:24.409Z,16.40
2022-07-27T01:41:53.687Z,16.42
2022-07-27T01:44:22.875Z,16.44
2022-07-27T01:46:52.698Z,16.45
2022-07-27T01:49:22.409Z,16.28
2022-07-27T01:51:51.761Z,16.19
2022-07-27T01:54:21.030Z,16.15
2022-07-27T01:56:52.218Z,16.16
2022-07-27T01:59:27.299Z,16.26
2022-07-27T02:01:56.604Z,16.29
2022-07-27T02:04:25.837Z,16.10
2022-07-27T02:06:55.037Z,16.08
2022-07-27T02:09:25.978Z,16.13
2022-07-27T02:12:14.109Z,16.26
2022-07-27T02:14:43.358Z,16.40
2022-07-27T02:17:12.928Z,16.51
2022-07-27T02:19:44.441Z,16.54
2022-07-27T02:22:13.705Z,16.53
2022-07-27T02:24:43.036Z,16.52
2022-07-27T02:27:13.991Z,16.61
2022-07-27T02:29:43.347Z,16.61
2022-07-27T02:32:12.748Z,16.66
2022-07-27T02:34:42.533Z,16.70
2022-07-27T02:37:11.819Z,16.61
2022-07-27T02:39:41.311Z,16.62
2022-07-27T02:42:10.926Z,16.50
2022-07-27T02:44:41.697Z,16.47
2022-07-27T02:47:11.067Z,16.43
2022-07-27T02:49:40.412Z,16.44
2022-07-27T02:52:10.390Z,16.46
2022-07-27T02:54:43.654Z,16.49
2022-07-27T02:57:12.981Z,16.52
2022-07-27T02:59:44.995Z,16.42
2022-07-27T03:02:19.463Z,16.41
2022-07-27T03:04:49.037Z,16.40
2022-07-27T03:07:21.349Z,16.35
2022-07-27T03:09:52.642Z,16.39
2022-07-27T03:12:22.049Z,16.46
2022-07-27T03:14:52.883Z,16.39
2022-07-27T03:17:23.559Z,16.29
2022-07-27T03:19:53.245Z,16.31
2022-07-27T03:22:22.427Z,16.32
2022-07-27T03:24:53.975Z,16.34
2022-07-27T03:27:23.150Z,16.31
2022-07-27T03:29:53.808Z,16.32
2022-07-27T03:32:23.045Z,16.31
2022-07-27T03:34:54.894Z,16.38
2022-07-27T03:37:24.201Z,16.51
2022-07-27T03:39:53.498Z,16.65
2022-07-27T03:42:22.728Z,16.55
2022-07-27T03:44:54.014Z,16.48
2022-07-27T03:47:23.448Z,16.52
2022-07-27T03:49:53.494Z,16.66
2022-07-27T03:52:23.294Z,16.51
2022-07-27T03:54:52.749Z,16.49
2022-07-27T03:57:22.092Z,16.51
2022-07-27T03:59:51.599Z,16.60
2022-07-27T04:02:22.324Z,16.64
2022-07-27T04:04:51.701Z,16.79
2022-07-27T04:07:21.048Z,16.74
2022-07-27T04:09:50.335Z,16.71
2022-07-27T04:12:20.221Z,16.72
2022-07-27T04:14:52.011Z,16.83
2022-07-27T04:17:55.127Z,16.80
2022-07-27T04:20:22.234Z,17.01
2022-07-27T04:22:51.441Z,16.93
2022-07-27T04:25:36.534Z,16.99
2022-07-27T04:28:07.327Z,16.98
2022-07-27T04:30:36.906Z,17.04
2022-07-27T04:33:08.655Z,17.07
2022-07-27T04:35:40.023Z,17.14
2022-07-27T04:38:36.596Z,17.19
2022-07-27T04:41:07.894Z,17.21
2022-07-27T04:43:38.440Z,17.16
2022-07-27T04:46:15.306Z,17.23
2022-07-27T04:48:49.066Z,17.27
2022-07-27T04:51:19.763Z,17.39
2022-07-27T04:53:53.569Z,17.41
2022-07-27T04:56:27.782Z,17.54
2022-07-27T04:58:57.424Z,17.60
2022-07-27T05:01:30.369Z,17.58
2022-07-27T05:04:05.411Z,17.55
2022-07-27T05:06:34.844Z,17.70
2022-07-27T05:09:04.315Z,17.75
2022-07-27T05:11:33.529Z,17.77
2022-07-27T05:14:04.142Z,17.77
2022-07-27T05:16:33.561Z,17.82
2022-07-27T05:19:06.165Z,17.80
2022-07-27T05:21:35.819Z,17.87
2022-07-27T05:24:05.485Z,17.89
2022-07-27T05:26:34.780Z,18.05
2022-07-27T05:29:04.481Z,18.04
2022-07-27T05:31:33.915Z,18.14
2022-07-27T05:34:04.674Z,18.05
2022-07-27T05:36:35.304Z,18.07
2022-07-27T05:39:10.419Z,17.99
2022-07-27T05:41:43.146Z,17.94
2022-07-27T05:44:12.381Z,17.97
2022-07-27T05:46:41.828Z,18.08
2022-07-27T05:49:12.821Z,18.14
2022-07-27T05:51:42.471Z,18.09
2022-07-27T05:54:14.747Z,18.21
2022-07-27T05:56:43.990Z,18.17
2022-07-27T05:59:13.680Z,18.26
2022-07-27T06:01:43.144Z,18.34
2022-07-27T06:04:15.989Z,18.42
2022-07-27T06:07:02.531Z,18.46
2022-07-27T06:09:37.044Z,18.54
2022-07-27T06:12:06.989Z,18.64
2022-07-27T06:14:36.422Z,18.71
2022-07-27T06:17:07.520Z,18.73
2022-07-27T06:19:40.621Z,18.67
2022-07-27T06:22:12.061Z,18.69
2022-07-27T06:24:41.390Z,18.87
2022-07-27T06:27:10.677Z,18.91
2022-07-27T06:29:39.956Z,18.88
2022-07-27T06:32:10.233Z,18.88
2022-07-27T06:34:43.187Z,19.01
2022-07-27T06:37:12.575Z,19.16
2022-07-27T06:39:41.721Z,19.04
2022-07-27T06:42:14.056Z,18.88
2022-07-27T06:44:52.686Z,18.90
2022-07-27T06:47:28.473Z,18.98
2022-07-27T06:50:00.600Z,18.90
2022-07-27T06:52:37.951Z,18.93
2022-07-27T06:55:07.874Z,18.93
2022-07-27T06:57:38.091Z,19.11
2022-07-27T07:00:09.737Z,19.37
2022-07-27T07:02:59.410Z,19.67
2022-07-27T07:05:31.135Z,19.88
2022-07-27T07:08:03.780Z,19.92
2022-07-27T07:10:35.248Z,19.96
2022-07-27T07:13:07.695Z,20.07
2022-07-27T07:15:45.555Z,20.20
2022-07-27T07:18:40.735Z,20.19
2022-07-27T07:21:11.937Z,19.90
2022-07-27T07:23:42.673Z,20.03
2022-07-27T07:26:12.173Z,20.18
2022-07-27T07:28:41.801Z,20.34
2022-07-27T07:31:17.650Z,20.49
2022-07-27T07:34:00.186Z,20.54
2022-07-27T07:36:34.688Z,20.63
2022-07-27T07:39:04.458Z,20.64
2022-07-27T07:41:36.809Z,20.51
2022-07-27T07:44:06.713Z,20.66
2022-07-27T07:46:37.316Z,20.83
2022-07-27T07:54:01.249Z,21.42
2022-07-27T07:56:30.662Z,21.53
2022-07-27T07:59:04.894Z,21.88
2022-07-27T08:01:34.685Z,22.11
2022-07-27T08:04:04.105Z,22.55
2022-07-27T08:06:33.865Z,23.00
2022-07-27T08:09:04.701Z,23.17
2022-07-27T08:11:34.231Z,22.89
2022-07-27T08:14:03.585Z,22.96
2022-07-27T08:16:32.937Z,22.93
2022-07-27T08:19:02.778Z,22.77
2022-07-27T08:21:35.562Z,22.81
2022-07-27T08:24:09.530Z,22.94
2022-07-27T08:26:39.057Z,22.91
2022-07-27T08:29:13.562Z,23.17
2022-07-27T08:31:52.274Z,23.25
2022-07-27T08:34:22.382Z,23.39
2022-07-27T08:36:51.654Z,23.53
2022-07-27T08:40:05.566Z,23.60
2022-07-27T08:42:12.250Z,23.79
2022-07-27T08:44:43.215Z,22.81
2022-07-27T08:47:15.309Z,23.26
2022-07-27T08:49:46.709Z,23.62
2022-07-27T08:52:20.571Z,23.74
2022-07-27T08:54:51.774Z,24.23
2022-07-27T08:57:21.175Z,24.20
2022-07-27T08:59:51.620Z,24.03
2022-07-27T09:02:24.114Z,24.26
2022-07-27T09:04:56.197Z,24.46
2022-07-27T09:07:31.701Z,24.75
2022-07-27T09:10:02.970Z,25.32
2022-07-27T09:12:34.088Z,25.58
2022-07-27T09:15:11.440Z,25.81
2022-07-27T09:18:04.018Z,26.09
2022-07-27T09:20:33.185Z,26.26
2022-07-27T09:23:02.721Z,26.56
2022-07-27T09:28:32.087Z,27.04
2022-07-27T09:31:08.708Z,27.14
2022-07-27T09:33:46.417Z,26.98
2022-07-27T09:36:18.351Z,27.05
2022-07-27T09:39:01.761Z,26.63
2022-07-27T09:41:44.036Z,26.77
2022-07-27T09:44:34.570Z,26.91
2022-07-27T09:47:23.300Z,27.67
2022-07-27T09:49:52.899Z,27.92
2022-07-27T09:52:29.313Z,28.28
2022-07-27T09:55:05.738Z,28.43
2022-07-27T09:57:53.878Z,28.61
2022-07-27T10:00:24.325Z,28.57
2022-07-27T10:02:55.375Z,28.59
2022-07-27T10:05:25.498Z,28.48
2022-07-27T10:07:56.217Z,28.62
2022-07-27T10:10:25.669Z,29.01
2022-07-27T10:12:56.276Z,29.35
2022-07-27T10:15:27.178Z,29.68
2022-07-27T10:18:09.125Z,29.06
2022-07-27T10:20:47.479Z,29.14
2022-07-27T10:23:28.491Z,29.65
2022-07-27T10:26:18.896Z,30.16
2022-07-27T10:28:59.085Z,30.24
2022-07-27T10:31:33.938Z,30.37
2022-07-27T10:34:05.540Z,30.37
2022-07-27T10:36:55.199Z,30.11
2022-07-27T10:39:47.095Z,30.00
2022-07-27T10:42:34.214Z,30.12
2022-07-27T10:45:09.331Z,30.11
2022-07-27T10:47:42.435Z,30.22
2022-07-27T10:50:36.012Z,30.41
2022-07-27T10:53:11.241Z,30.18
2022-07-27T10:55:51.786Z,30.43
2022-07-27T10:58:52.806Z,30.58
2022-07-27T11:01:24.611Z,30.04
2022-07-27T11:04:09.346Z,29.72
2022-07-27T11:07:15.009Z,29.55
2022-07-27T11:12:30.667Z,28.33
2022-07-27T11:15:02.208Z,28.10
2022-07-27T11:17:56.913Z,28.17
2022-07-27T11:20:27.672Z,28.25
2022-07-27T11:23:48.673Z,28.05
2022-07-27T11:25:59.130Z,27.94
2022-07-27T11:28:33.472Z,27.83
2022-07-27T11:31:04.087Z,27.75
2022-07-27T11:33:35.277Z,27.56
2022-07-27T11:36:08.308Z,27.25
2022-07-27T11:38:48.117Z,27.04
2022-07-27T11:44:20.028Z,26.44
2022-07-27T11:46:52.091Z,26.26
2022-07-27T11:49:28.667Z,26.15
2022-07-27T11:52:01.394Z,26.06
2022-07-27T11:54:33.309Z,25.97
2022-07-27T11:57:05.988Z,25.81
2022-07-27T11:59:37.504Z,25.70
2022-07-27T12:02:08.906Z,25.64
2022-07-27T12:04:41.794Z,25.61
2022-07-27T12:07:17.182Z,25.65
2022-07-27T12:09:50.701Z,25.75
2022-07-27T12:12:26.124Z,25.88
2022-07-27T12:14:57.595Z,26.13
2022-07-27T12:17:31.189Z,26.36
2022-07-27T12:20:09.966Z,26.33
2022-07-27T12:22:41.956Z,26.52
2022-07-27T12:25:25.965Z,26.62
2022-07-27T12:27:57.518Z,27.07
2022-07-27T12:30:32.414Z,27.02
2022-07-27T12:33:03.075Z,26.73
2022-07-27T12:35:46.250Z,26.94
2022-07-27T12:38:16.410Z,27.10
2022-07-27T12:40:48.378Z,27.14
2022-07-27T12:43:20.185Z,27.82
2022-07-27T12:45:52.053Z,28.72
2022-07-27T12:48:25.514Z,29.39
2022-07-27T12:51:03.184Z,29.68
2022-07-27T12:53:34.314Z,28.93
2022-07-27T12:56:06.931Z,29.45
2022-07-27T12:58:37.408Z,29.68
2022-07-27T13:01:07.437Z,29.38
2022-07-27T13:03:37.132Z,29.05
2022-07-27T13:06:12.852Z,29.33
2022-07-27T13:08:42.582Z,29.88
2022-07-27T13:11:11.834Z,30.24
2022-07-27T13:13:43.146Z,30.59
2022-07-27T13:16:12.437Z,31.21
2022-07-27T13:18:41.738Z,31.15
2022-07-27T13:21:12.358Z,30.93
2022-07-27T13:23:41.648Z,30.02
2022-07-27T13:26:10.835Z,29.70
2022-07-27T13:28:40.153Z,29.11
2022-07-27T13:31:09.689Z,28.23
2022-07-27T13:33:38.835Z,27.31
2022-07-27T13:36:09.824Z,27.00
2022-07-27T13:38:40.450Z,26.28
2022-07-27T13:41:10.446Z,25.72
2022-07-27T13:43:39.723Z,25.83
2022-07-27T13:46:10.520Z,25.72
2022-07-27T13:48:39.863Z,25.54
2022-07-27T13:51:11.247Z,25.15
2022-07-27T13:53:41.851Z,24.85
2022-07-27T13:56:14.098Z,24.52
2022-07-27T13:58:45.339Z,24.47
2022-07-27T14:01:15.582Z,24.49
2022-07-27T14:03:45.197Z,24.51
2022-07-27T14:06:16.735Z,24.56
2022-07-27T14:08:48.568Z,24.63
2022-07-27T14:11:17.943Z,24.71
2022-07-27T14:13:47.321Z,24.70
2022-07-27T14:16:16.495Z,24.70
2022-07-27T14:18:45.776Z,24.62
2022-07-27T14:21:15.239Z,24.73
2022-07-27T14:23:45.017Z,24.78
2022-07-27T14:26:15.814Z,25.06
2022-07-27T14:28:45.258Z,25.16
2022-07-27T14:31:14.785Z,25.38
2022-07-27T14:33:44.074Z,25.40
2022-07-27T14:36:13.425Z,25.42
2022-07-27T14:38:44.350Z,25.40
2022-07-27T14:41:13.469Z,25.61
2022-07-27T14:43:45.236Z,25.64
2022-07-27T14:46:14.443Z,25.65
2022-07-27T14:49:12.538Z,25.55
2022-07-27T14:51:33.034Z,25.51
2022-07-27T14:54:02.424Z,25.51
2022-07-27T14:56:32.724Z,25.47
2022-07-27T14:59:06.509Z,25.40
2022-07-27T15:01:37.522Z,25.39
2022-07-27T15:04:07.474Z,25.44
2022-07-27T15:06:39.217Z,25.29
2022-07-27T15:09:13.430Z,25.49
2022-07-27T15:12:07.800Z,25.47
2022-07-27T15:14:39.838Z,25.34
2022-07-27T15:17:09.008Z,25.38
2022-07-27T15:19:39.104Z,25.48
2022-07-27T15:22:08.363Z,25.61
2022-07-27T15:24:38.621Z,25.72
2022-07-27T15:27:07.937Z,25.89
2022-07-27T15:29:39.129Z,26.07
2022-07-27T15:32:10.065Z,25.95
2022-07-27T15:34:40.618Z,25.83
2022-07-27T15:37:09.840Z,25.98
2022-07-27T15:39:41.325Z,25.95
2022-07-27T15:42:10.921Z,25.86
2022-07-27T15:44:42.362Z,25.82
2022-07-27T15:47:11.768Z,25.25
2022-07-27T15:49:41.110Z,24.97
2022-07-27T15:52:10.440Z,24.96
2022-07-27T15:54:45.368Z,24.75
2022-07-27T15:57:14.957Z,24.62
2022-07-27T15:59:45.925Z,24.45
2022-07-27T16:02:15.175Z,24.41
2022-07-27T16:04:52.209Z,24.34
2022-07-27T16:07:21.518Z,24.26
2022-07-27T16:09:51.077Z,23.89
2022-07-27T16:12:20.621Z,23.71
2022-07-27T16:14:51.251Z,23.72
2022-07-27T16:17:20.411Z,23.76
2022-07-27T16:19:49.679Z,23.62
2022-07-27T16:22:18.964Z,23.60
2022-07-27T16:24:48.747Z,23.35
2022-07-27T16:27:18.178Z,23.22
2022-07-27T16:29:47.916Z,22.94
2022-07-27T16:32:18.704Z,22.65
2022-07-27T16:34:48.551Z,22.68
2022-07-27T16:37:20.813Z,22.62
2022-07-27T16:39:50.378Z,22.45
2022-07-27T16:42:19.628Z,22.36
2022-07-27T16:44:49.277Z,22.15
2022-07-27T16:47:22.984Z,22.02
2022-07-27T16:49:52.660Z,21.94
2022-07-27T16:52:21.988Z,21.73
2022-07-27T16:54:51.367Z,21.85
2022-07-27T16:57:20.913Z,21.81
2022-07-27T16:59:50.179Z,21.64
2022-07-27T17:02:21.035Z,21.41
2022-07-27T17:04:56.636Z,21.17
2022-07-27T17:07:26.215Z,21.12
2022-07-27T17:09:55.361Z,21.13
2022-07-27T17:12:25.187Z,21.16
2022-07-27T17:14:56.375Z,21.35
2022-07-27T17:17:25.678Z,21.29
2022-07-27T17:20:06.139Z,21.13
2022-07-27T17:22:35.396Z,20.97
2022-07-27T17:25:05.115Z,20.86
2022-07-27T17:27:34.979Z,20.68
2022-07-27T17:30:07.503Z,20.56
2022-07-27T17:32:37.917Z,20.35
2022-07-27T17:35:10.146Z,20.21
2022-07-27T17:38:04.487Z,20.12
2022-07-27T17:40:28.528Z,19.96
2022-07-27T17:42:58.812Z,19.87
2022-07-27T17:45:28.260Z,19.72
2022-07-27T17:47:57.496Z,19.61
2022-07-27T17:50:28.129Z,19.79
2022-07-27T17:52:58.250Z,19.72
2022-07-27T17:55:27.540Z,19.65
2022-07-27T17:57:58.146Z,19.53
2022-07-27T18:00:27.406Z,19.46
2022-07-27T18:02:58.503Z,19.19
2022-07-27T18:05:29.122Z,19.05
2022-07-27T18:07:58.527Z,19.00
2022-07-27T18:10:28.826Z,18.98
2022-07-27T18:12:58.026Z,18.87
2022-07-27T18:15:47.039Z,18.69
2022-07-27T18:18:17.111Z,18.77
2022-07-27T18:20:50.486Z,18.78
2022-07-27T18:23:20.833Z,18.73
2022-07-27T18:25:50.879Z,18.73
2022-07-27T18:28:21.316Z,18.66
2022-07-27T18:30:53.530Z,18.54
2022-07-27T18:33:23.274Z,18.40
2022-07-27T18:35:54.477Z,18.39
2022-07-27T18:38:25.356Z,18.45
2022-07-27T18:40:54.776Z,18.57
2022-07-27T18:43:26.082Z,18.68
2022-07-27T18:45:55.482Z,18.81
2022-07-27T18:48:51.211Z,18.64
2022-07-27T18:51:21.879Z,18.77
2022-07-27T18:53:52.082Z,18.70
2022-07-27T18:56:26.751Z,18.76
2022-07-27T18:58:55.963Z,18.53
2022-07-27T19:01:25.682Z,18.41
2022-07-27T19:03:55.128Z,18.42
2022-07-27T19:06:25.895Z,18.37
2022-07-27T19:08:55.817Z,18.40
2022-07-27T19:11:25.286Z,18.40
2022-07-27T19:13:56.737Z,18.33
2022-07-27T19:16:26.419Z,18.36
2022-07-27T19:18:56.141Z,18.22
2022-07-27T19:21:26.987Z,18.15
2022-07-27T19:23:56.299Z,18.13
2022-07-27T19:26:26.220Z,18.03
2022-07-27T19:28:55.484Z,18.06
2022-07-27T19:31:25.540Z,17.98
2022-07-27T19:33:56.225Z,17.76
2022-07-27T19:36:27.751Z,17.76
2022-07-27T19:38:57.375Z,17.94
2022-07-27T19:41:26.768Z,17.80
2022-07-27T19:43:56.048Z,17.61
2022-07-27T19:46:25.459Z,17.50
2022-07-27T19:48:55.075Z,17.53
2022-07-27T19:51:24.388Z,17.50
2022-07-27T19:53:55.350Z,17.46
2022-07-27T19:56:32.793Z,17.44
2022-07-27T19:59:06.684Z,17.50
2022-07-27T20:01:36.738Z,17.36
2022-07-27T20:04:09.890Z,17.31
2022-07-27T20:06:39.307Z,17.35
2022-07-27T20:09:13.772Z,17.28
2022-07-27T20:11:44.491Z,17.35
2022-07-27T20:14:15.312Z,17.15
2022-07-27T20:16:48.401Z,17.11
2022-07-27T20:19:20.248Z,17.14
2022-07-27T20:21:50.791Z,17.11
2022-07-27T20:24:21.682Z,17.12
2022-07-27T20:26:52.036Z,17.08
2022-07-27T20:29:46.577Z,17.06
2022-07-27T20:32:16.033Z,17.07
2022-07-27T20:34:46.268Z,17.17
2022-07-27T20:37:18.115Z,17.17
2022-07-27T20:39:52.333Z,16.92
2022-07-27T20:42:21.780Z,16.91
2022-07-27T20:45:35.575Z,16.90
2022-07-27T20:48:05.881Z,16.89
2022-07-27T20:50:35.562Z,16.82
2022-07-27T20:53:05.292Z,16.79
2022-07-27T20:55:36.447Z,16.80
2022-07-27T20:58:05.992Z,16.68
2022-07-27T21:00:36.095Z,16.64
2022-07-27T21:03:56.558Z,16.53
2022-07-27T21:06:25.791Z,16.50
2022-07-27T21:08:56.265Z,16.40
2022-07-27T21:11:29.977Z,16.42
2022-07-27T21:14:00.852Z,16.41
2022-07-27T21:16:32.379Z,16.37
2022-07-27T21:19:02.911Z,16.34
2022-07-27T21:21:32.397Z,16.38
2022-07-27T21:24:17.905Z,16.40
2022-07-27T21:26:52.236Z,16.36
2022-07-27T21:29:23.215Z,16.36
2022-07-27T21:31:56.427Z,16.33
2022-07-27T21:34:26.041Z,16.30
2022-07-27T21:36:55.606Z,16.28
2022-07-27T21:39:25.291Z,16.26
2022-07-27T21:42:01.738Z,16.26
2022-07-27T21:44:37.880Z,16.28
2022-07-27T21:47:13.431Z,16.22
2022-07-27T21:49:43.383Z,16.25
2022-07-27T21:52:12.650Z,16.32
2022-07-27T21:54:41.902Z,16.35
2022-07-27T21:57:12.638Z,16.48
2022-07-27T21:59:41.825Z,16.57
2022-07-27T22:02:11.175Z,16.63
2022-07-27T22:04:40.596Z,16.72
2022-07-27T22:07:17.989Z,16.75
2022-07-27T22:09:48.772Z,16.80
2022-07-27T22:12:19.441Z,16.71
2022-07-27T22:14:48.687Z,16.65
2022-07-27T22:17:17.965Z,16.83
2022-07-27T22:19:47.185Z,16.86
2022-07-27T22:22:16.735Z,16.78
2022-07-27T22:24:45.929Z,16.86
2022-07-27T22:27:15.225Z,16.65
2022-07-27T22:29:45.871Z,16.59
2022-07-27T22:32:15.229Z,16.45
2022-07-27T22:34:44.471Z,16.32
2022-07-27T22:37:15.054Z,16.24
2022-07-27T22:39:44.475Z,16.20
2022-07-27T22:42:13.829Z,16.19
2022-07-27T22:44:43.269Z,16.10
2022-07-27T22:47:13.854Z,16.08
2022-07-27T22:49:43.032Z,16.26
2022-07-27T22:52:15.330Z,16.26
2022-07-27T22:54:44.981Z,16.21
2022-07-27T22:57:14.332Z,16.00
2022-07-27T22:59:43.659Z,16.04
2022-07-27T23:02:14.263Z,15.98
2022-07-27T23:04:43.730Z,15.84
2022-07-27T23:07:13.170Z,15.80
2022-07-27T23:09:42.362Z,15.80
2022-07-27T23:12:11.665Z,15.84
2022-07-27T23:14:42.784Z,15.78
2022-07-27T23:17:19.878Z,15.67
2022-07-27T23:19:49.161Z,15.54
2022-07-27T23:22:18.442Z,15.48
2022-07-27T23:24:49.600Z,15.48
2022-07-27T23:27:20.501Z,15.52
2022-07-27T23:29:49.956Z,15.62
2022-07-27T23:32:20.701Z,15.67
2022-07-27T23:34:49.942Z,15.59
2022-07-27T23:37:19.387Z,15.50
2022-07-27T23:39:48.843Z,15.44
2022-07-27T23:42:18.109Z,15.33
2022-07-27T23:44:47.276Z,15.27
2022-07-27T23:47:17.137Z,15.35
2022-07-27T23:49:48.022Z,15.47
2022-07-27T23:52:17.367Z,15.38
2022-07-27T23:54:46.657Z,15.21
2022-07-27T23:57:15.966Z,15.14
2022-07-27T23:59:45.270Z,15.16
